Terminal Aerodrome Forecast
Issued by NWS

Home | Current Version | Previous Version | Text Only | Print | Product List | Glossary On
Versions: 1 2 3 4 5 6 7 8 9 10 11 12 13
454
FTUS45 KABQ 281738
TAFAEG
TAF
KAEG 281738Z 2818/2918 12010KT P6SM SKC
     FM282100 12008KT P6SM FEW100
     FM290000 16009KT P6SM VCSH BKN100
     FM290400 14007KT P6SM BKN100
     FM291000 36006KT P6SM FEW120
     FM291500 12011KT P6SM FEW120=

USA.gov is the U.S. government's official web portal to all federal, state and local government web resources and services.